Time;durP1;ratioP1;P1;durP2;ratioP2;P2;SDS_P1;SDS_P2;PMS_P1;PMS_P2;Temp;Humidity;BMP_temperature;BMP_pressure;BME280_temperature;BME280_humidity;BME280_pressure;Samples;Min_cycle;Max_cycle;Signal;HPM_P1;HPM_P2
2021/06/25 00:00:46;;;;;;;2.40;0.75;;;;;;;;;;4977286;28;20462;-82
2021/06/25 00:03:13;;;;;;;3.42;0.80;;;;;;;;;;4969665;28;20412;-82
2021/06/25 00:05:41;;;;;;;4.15;0.90;;;;;;;;;;4969195;28;20402;-82
2021/06/25 00:08:08;;;;;;;3.05;1.05;;;;;;;;;;4968991;28;21151;-83
2021/06/25 00:10:35;;;;;;;3.83;0.90;;;;;;;;;;4967950;28;20418;-83
2021/06/25 00:13:02;;;;;;;2.65;0.93;;;;;;;;;;4969089;28;20453;-82
2021/06/25 00:15:29;;;;;;;1.83;0.90;;;;;;;;;;4970652;28;20412;-82
2021/06/25 00:17:58;;;;;;;2.83;1.10;;;;;;;;;;4982078;28;20408;-82
2021/06/25 00:20:25;;;;;;;1.42;0.80;;;;;;;;;;4977318;28;20815;-82
2021/06/25 00:22:54;;;;;;;3.83;1.00;;;;;;;;;;4978534;28;20408;-82
2021/06/25 00:25:21;;;;;;;1.97;1.07;;;;;;;;;;4980833;28;20433;-82
2021/06/25 00:27:48;;;;;;;2.45;1.40;;;;;;;;;;4980566;28;20443;-82
2021/06/25 00:30:16;;;;;;;3.22;1.20;;;;;;;;;;4981007;28;20407;-83
2021/06/25 00:32:43;;;;;;;2.63;1.20;;;;;;;;;;4968535;28;20558;-82
2021/06/25 00:35:10;;;;;;;3.13;1.30;;;;;;;;;;4968389;28;20442;-82
2021/06/25 00:37:37;;;;;;;3.20;1.17;;;;;;;;;;4968464;28;20410;-82
2021/06/25 00:40:07;;;;;;;4.90;1.40;;;;;;;;;;4968579;28;21294;-82
2021/06/25 00:42:34;;;;;;;4.32;1.25;;;;;;;;;;4968044;28;21249;-82
2021/06/25 00:45:09;;;;;;;3.70;1.38;;;;;;;;;;4967904;28;20426;-82
2021/06/25 00:47:36;;;;;;;3.03;1.20;;;;;;;;;;4967922;28;20496;-82
2021/06/25 00:50:04;;;;;;;2.07;0.97;;;;;;;;;;4968308;28;20462;-82
2021/06/25 00:52:30;;;;;;;5.00;1.55;;;;;;;;;;4967098;28;20431;-82
2021/06/25 00:54:57;;;;;;;3.80;1.20;;;;;;;;;;4967783;28;20425;-82
2021/06/25 00:57:25;;;;;;;2.22;1.00;;;;;;;;;;4970038;28;20787;-82
2021/06/25 00:59:52;;;;;;;3.30;1.20;;;;;;;;;;4978212;28;20405;-82
2021/06/25 01:02:19;;;;;;;3.10;1.30;;;;;;;;;;4980893;28;21166;-82
2021/06/25 01:04:46;;;;;;;2.90;1.40;;;;;;;;;;4979931;28;20461;-82
2021/06/25 01:07:12;;;;;;;2.65;1.23;;;;;;;;;;4980331;28;20771;-82
2021/06/25 01:09:42;;;;;;;3.20;1.23;;;;;;;;;;4980135;28;20413;-82
2021/06/25 01:12:10;;;;;;;1.88;1.25;;;;;;;;;;4980579;28;20954;-82
2021/06/25 01:14:39;;;;;;;2.47;1.40;;;;;;;;;;4980182;28;21144;-82
2021/06/25 01:17:07;;;;;;;3.83;1.15;;;;;;;;;;4980421;28;20416;-82
2021/06/25 01:19:34;;;;;;;2.45;1.35;;;;;;;;;;4980163;28;20802;-82
2021/06/25 01:22:03;;;;;;;1.70;0.93;;;;;;;;;;4980230;28;20976;-82
2021/06/25 01:24:30;;;;;;;2.95;1.00;;;;;;;;;;4980027;28;20436;-82
2021/06/25 01:26:57;;;;;;;1.95;1.02;;;;;;;;;;4980310;28;20415;-82
2021/06/25 01:29:23;;;;;;;2.50;1.00;;;;;;;;;;4978315;28;20425;-82
2021/06/25 01:31:52;;;;;;;4.05;1.08;;;;;;;;;;4980383;28;20397;-82
2021/06/25 01:34:19;;;;;;;3.30;1.27;;;;;;;;;;4969572;28;20830;-82
2021/06/25 01:36:46;;;;;;;2.80;1.23;;;;;;;;;;4966689;28;20455;-81
2021/06/25 01:39:16;;;;;;;2.53;1.30;;;;;;;;;;4966194;28;20489;-82
2021/06/25 01:41:43;;;;;;;2.83;1.23;;;;;;;;;;4968073;28;20405;-82
2021/06/25 01:44:10;;;;;;;2.45;1.10;;;;;;;;;;4966200;28;20871;-82
2021/06/25 01:46:37;;;;;;;2.83;1.30;;;;;;;;;;4965594;28;20410;-82
2021/06/25 01:49:04;;;;;;;3.05;1.40;;;;;;;;;;4965799;28;20411;-82
2021/06/25 01:51:30;;;;;;;2.80;1.30;;;;;;;;;;4965884;28;20402;-82
2021/06/25 01:53:57;;;;;;;2.65;1.05;;;;;;;;;;4966444;28;20471;-81
2021/06/25 01:56:25;;;;;;;3.63;1.30;;;;;;;;;;4977968;28;20416;-82
2021/06/25 01:58:52;;;;;;;3.25;1.30;;;;;;;;;;4980353;28;20412;-82
2021/06/25 02:01:19;;;;;;;2.50;1.30;;;;;;;;;;4975446;28;20401;-81
2021/06/25 02:03:47;;;;;;;4.43;1.25;;;;;;;;;;4983317;28;20647;-81
2021/06/25 02:06:15;;;;;;;3.63;1.20;;;;;;;;;;4983313;28;20756;-82
2021/06/25 02:08:42;;;;;;;5.03;1.13;;;;;;;;;;4983132;28;20405;-82
2021/06/25 02:11:10;;;;;;;5.07;1.48;;;;;;;;;;4983363;28;20769;-82
2021/06/25 02:13:39;;;;;;;2.72;1.30;;;;;;;;;;4983052;28;20412;-82
2021/06/25 02:16:06;;;;;;;4.00;1.25;;;;;;;;;;4983798;28;20415;-82
2021/06/25 02:18:32;;;;;;;3.67;1.55;;;;;;;;;;4983011;28;20474;-82
2021/06/25 02:20:59;;;;;;;5.63;1.42;;;;;;;;;;4983216;28;20409;-82
2021/06/25 02:23:27;;;;;;;3.88;1.60;;;;;;;;;;4983163;28;20455;-82
2021/06/25 02:25:53;;;;;;;4.20;1.30;;;;;;;;;;4979187;28;20428;-81
2021/06/25 02:28:20;;;;;;;2.60;1.17;;;;;;;;;;4982823;28;20900;-82
2021/06/25 02:30:49;;;;;;;2.35;1.38;;;;;;;;;;4993306;28;20408;-82
2021/06/25 02:33:15;;;;;;;3.30;1.30;;;;;;;;;;4999516;28;20405;-82
2021/06/25 02:35:42;;;;;;;3.10;1.38;;;;;;;;;;4990214;28;20420;-82
2021/06/25 02:38:09;;;;;;;4.10;1.50;;;;;;;;;;4983598;28;20876;-82
2021/06/25 02:40:36;;;;;;;4.10;1.50;;;;;;;;;;4982765;28;20777;-82
2021/06/25 02:43:03;;;;;;;5.65;1.80;;;;;;;;;;4983379;28;20408;-82
2021/06/25 02:45:30;;;;;;;3.95;1.50;;;;;;;;;;4982764;28;20428;-81
2021/06/25 02:47:58;;;;;;;3.33;1.42;;;;;;;;;;4983067;28;20417;-82
2021/06/25 02:50:25;;;;;;;4.65;1.60;;;;;;;;;;4979288;28;20400;-82
2021/06/25 02:52:52;;;;;;;2.50;1.50;;;;;;;;;;4982957;28;20885;-82
2021/06/25 02:55:20;;;;;;;8.43;1.97;;;;;;;;;;4982481;28;20409;-82
2021/06/25 02:57:47;;;;;;;3.57;1.70;;;;;;;;;;4983064;28;20443;-81
2021/06/25 03:00:16;;;;;;;5.40;1.60;;;;;;;;;;4983048;28;20413;-82
2021/06/25 03:02:44;;;;;;;2.88;1.58;;;;;;;;;;4983211;28;20413;-81
2021/06/25 03:05:14;;;;;;;4.30;1.80;;;;;;;;;;4982576;28;20915;-82
2021/06/25 03:07:41;;;;;;;3.75;1.75;;;;;;;;;;4982522;28;20824;-81
2021/06/25 03:10:09;;;;;;;3.70;1.90;;;;;;;;;;4982568;28;20935;-82
2021/06/25 03:12:36;;;;;;;4.80;2.05;;;;;;;;;;4982324;28;20475;-82
2021/06/25 03:15:04;;;;;;;5.45;2.05;;;;;;;;;;4983062;28;20456;-82
2021/06/25 03:17:31;;;;;;;5.15;2.13;;;;;;;;;;4985820;28;20408;-82
2021/06/25 03:19:58;;;;;;;5.53;2.08;;;;;;;;;;4986335;28;20884;-82
2021/06/25 03:22:26;;;;;;;5.85;2.35;;;;;;;;;;4977875;28;20412;-81
2021/06/25 03:24:52;;;;;;;4.68;2.30;;;;;;;;;;4985474;28;20424;-82
2021/06/25 03:27:19;;;;;;;3.05;2.20;;;;;;;;;;4984486;28;20412;-82
2021/06/25 03:29:46;;;;;;;3.65;2.17;;;;;;;;;;4986177;28;20967;-82
2021/06/25 03:32:13;;;;;;;3.83;2.47;;;;;;;;;;4986870;28;20813;-82
2021/06/25 03:34:40;;;;;;;3.45;2.45;;;;;;;;;;4985653;28;20405;-82
2021/06/25 03:37:07;;;;;;;4.38;2.30;;;;;;;;;;4986092;28;20797;-82
2021/06/25 03:39:35;;;;;;;4.80;2.50;;;;;;;;;;4985917;28;20507;-82
2021/06/25 03:42:01;;;;;;;6.45;2.90;;;;;;;;;;4986137;28;20404;-82
2021/06/25 03:44:28;;;;;;;4.82;2.58;;;;;;;;;;4985655;28;20421;-82
2021/06/25 03:46:55;;;;;;;3.60;2.30;;;;;;;;;;4982507;28;20742;-82
2021/06/25 03:49:22;;;;;;;6.03;2.67;;;;;;;;;;4985102;28;20415;-82
2021/06/25 03:51:49;;;;;;;3.03;2.50;;;;;;;;;;4985705;28;20417;-82
2021/06/25 03:54:16;;;;;;;6.47;2.63;;;;;;;;;;4986232;28;20804;-81
2021/06/25 03:56:44;;;;;;;5.28;2.40;;;;;;;;;;4986025;28;20412;-82
2021/06/25 03:59:11;;;;;;;4.50;2.83;;;;;;;;;;4985675;28;20417;-82
2021/06/25 04:01:38;;;;;;;3.88;2.78;;;;;;;;;;4985315;28;20728;-82
2021/06/25 04:04:05;;;;;;;3.53;2.95;;;;;;;;;;4981037;28;20416;-82
2021/06/25 04:06:32;;;;;;;4.95;2.88;;;;;;;;;;4979188;28;20432;-82
2021/06/25 04:08:58;;;;;;;6.18;3.47;;;;;;;;;;4966142;28;20418;-82
2021/06/25 04:11:25;;;;;;;4.40;3.45;;;;;;;;;;4980575;28;20404;-82
2021/06/25 04:13:53;;;;;;;6.35;3.40;;;;;;;;;;4970382;28;20418;-82
2021/06/25 04:16:20;;;;;;;5.88;3.45;;;;;;;;;;4967434;28;20402;-82
2021/06/25 04:18:47;;;;;;;4.28;3.00;;;;;;;;;;4967336;28;20412;-82
2021/06/25 04:21:14;;;;;;;5.47;3.25;;;;;;;;;;4966843;28;20410;-82
2021/06/25 04:23:41;;;;;;;6.57;3.10;;;;;;;;;;4966400;28;20952;-82
2021/06/25 04:26:07;;;;;;;5.57;3.42;;;;;;;;;;4966475;28;20434;-82
2021/06/25 04:28:35;;;;;;;5.45;2.85;;;;;;;;;;4965713;28;21325;-81
2021/06/25 04:31:03;;;;;;;6.68;2.90;;;;;;;;;;4967522;28;20393;-82
2021/06/25 04:33:30;;;;;;;5.07;2.92;;;;;;;;;;4966508;28;20415;-82
2021/06/25 04:35:57;;;;;;;7.43;3.03;;;;;;;;;;4966375;28;20475;-82
2021/06/25 04:38:24;;;;;;;5.90;3.20;;;;;;;;;;4966018;28;20518;-81
2021/06/25 04:40:51;;;;;;;6.18;3.08;;;;;;;;;;4966758;28;20419;-82
2021/06/25 04:43:18;;;;;;;5.72;2.90;;;;;;;;;;4966626;28;20412;-82
2021/06/25 04:45:46;;;;;;;4.28;2.67;;;;;;;;;;4965798;28;20434;-82
2021/06/25 04:48:15;;;;;;;5.65;3.08;;;;;;;;;;4966372;28;20410;-82
2021/06/25 04:50:43;;;;;;;5.63;3.50;;;;;;;;;;4966172;28;20890;-82
2021/06/25 04:53:10;;;;;;;6.80;3.20;;;;;;;;;;4966370;28;20900;-82
2021/06/25 04:55:42;;;;;;;7.85;3.45;;;;;;;;;;4965790;28;20410;-81
2021/06/25 04:58:09;;;;;;;6.90;3.72;;;;;;;;;;4966179;28;20416;-82
2021/06/25 05:00:37;;;;;;;6.35;3.40;;;;;;;;;;4969435;28;20409;-82
2021/06/25 05:03:04;;;;;;;5.18;3.78;;;;;;;;;;4975543;28;20403;-82
2021/06/25 05:05:32;;;;;;;8.45;3.70;;;;;;;;;;4965488;28;20430;-81
2021/06/25 05:07:59;;;;;;;6.18;3.88;;;;;;;;;;4965637;28;20410;-82
2021/06/25 05:10:26;;;;;;;6.45;4.75;;;;;;;;;;4965418;28;20410;-82
2021/06/25 05:12:53;;;;;;;9.00;4.68;;;;;;;;;;4981880;28;20408;-82
2021/06/25 05:15:21;;;;;;;7.80;4.60;;;;;;;;;;4965080;28;21246;-82
2021/06/25 05:17:48;;;;;;;7.15;4.57;;;;;;;;;;4965511;28;20409;-82
2021/06/25 05:20:15;;;;;;;6.87;4.20;;;;;;;;;;4964993;28;20406;-82
2021/06/25 05:22:44;;;;;;;8.05;4.18;;;;;;;;;;4973146;28;20486;-82
2021/06/25 05:25:11;;;;;;;8.30;4.20;;;;;;;;;;4982128;28;20427;-82
2021/06/25 05:27:38;;;;;;;6.13;4.10;;;;;;;;;;4981754;28;20896;-82
2021/06/25 05:30:06;;;;;;;6.60;3.70;;;;;;;;;;4975276;28;20467;-82
2021/06/25 05:32:33;;;;;;;6.82;3.17;;;;;;;;;;4982365;28;20467;-82
2021/06/25 05:35:01;;;;;;;5.03;3.40;;;;;;;;;;4981783;28;20404;-82
2021/06/25 05:37:28;;;;;;;5.43;3.72;;;;;;;;;;4981733;28;20939;-80
2021/06/25 05:39:56;;;;;;;6.88;3.60;;;;;;;;;;4966712;28;21430;-82
2021/06/25 05:42:23;;;;;;;8.48;3.70;;;;;;;;;;4982123;28;20416;-82
2021/06/25 05:44:50;;;;;;;8.15;3.85;;;;;;;;;;4982380;28;20405;-81
2021/06/25 05:47:17;;;;;;;6.85;3.65;;;;;;;;;;4982310;28;20415;-81
2021/06/25 05:49:43;;;;;;;8.52;3.80;;;;;;;;;;4982513;28;20408;-85
2021/06/25 05:52:10;;;;;;;5.90;3.42;;;;;;;;;;4982221;28;20408;-82
2021/06/25 05:54:37;;;;;;;6.32;3.95;;;;;;;;;;4982323;28;20821;-81
2021/06/25 05:57:06;;;;;;;6.47;3.47;;;;;;;;;;4981356;28;20408;-83
2021/06/25 05:59:34;;;;;;;6.10;3.75;;;;;;;;;;4981683;28;20411;-82
2021/06/25 06:02:01;;;;;;;5.70;3.47;;;;;;;;;;4981660;28;20524;-82
2021/06/25 06:04:28;;;;;;;8.38;3.90;;;;;;;;;;4963791;28;20414;-82
2021/06/25 06:06:55;;;;;;;7.88;3.72;;;;;;;;;;4978330;28;20428;-83
2021/06/25 06:09:22;;;;;;;6.90;3.97;;;;;;;;;;4982324;28;21208;-82
2021/06/25 06:11:49;;;;;;;7.40;3.20;;;;;;;;;;5003357;22;20556;-94
2021/06/25 06:14:17;;;;;;;6.47;3.30;;;;;;;;;;5012924;28;20411;-94
2021/06/25 06:16:43;;;;;;;7.45;3.63;;;;;;;;;;5011041;28;20403;-95
2021/06/25 06:19:10;;;;;;;9.75;3.95;;;;;;;;;;5009402;28;20415;-94
2021/06/25 06:32:44;;;;;;;4.90;3.40;;;;;;;;;;5021917;28;20895;-94
2021/06/25 06:35:11;;;;;;;8.35;4.13;;;;;;;;;;5024401;28;20480;-94
2021/06/25 06:37:38;;;;;;;6.00;3.60;;;;;;;;;;5008017;28;20519;-93
2021/06/25 06:40:05;;;;;;;5.50;3.45;;;;;;;;;;5005652;28;20403;-94
2021/06/25 06:42:32;;;;;;;6.22;3.50;;;;;;;;;;5004710;28;20406;-94
2021/06/25 06:45:00;;;;;;;5.45;3.30;;;;;;;;;;5015208;28;20481;-93
2021/06/25 06:47:27;;;;;;;6.13;3.90;;;;;;;;;;5020928;28;20408;-93
2021/06/25 06:49:54;;;;;;;7.10;3.87;;;;;;;;;;5020640;28;20507;-95
2021/06/25 06:52:21;;;;;;;8.07;4.05;;;;;;;;;;5023611;28;20424;-94
2021/06/25 06:54:48;;;;;;;5.10;3.40;;;;;;;;;;5023152;28;20407;-94
2021/06/25 06:57:14;;;;;;;5.70;3.30;;;;;;;;;;5024410;28;20413;-94
2021/06/25 06:59:41;;;;;;;6.72;3.20;;;;;;;;;;5024116;28;20416;-94
2021/06/25 07:02:09;;;;;;;4.50;3.70;;;;;;;;;;5026977;28;20459;-95
2021/06/25 07:04:36;;;;;;;6.22;3.40;;;;;;;;;;5025345;28;20405;-94
2021/06/25 07:07:03;;;;;;;5.75;3.58;;;;;;;;;;5020346;28;20424;-94
2021/06/25 07:09:30;;;;;;;6.18;3.53;;;;;;;;;;5027743;28;20397;-94
2021/06/25 07:11:56;;;;;;;6.47;3.40;;;;;;;;;;5023727;28;20405;-95
2021/06/25 07:14:23;;;;;;;7.57;3.28;;;;;;;;;;5019716;28;20401;-94
2021/06/25 07:16:50;;;;;;;9.60;3.70;;;;;;;;;;5023717;28;20936;-95
2021/06/25 07:19:20;;;;;;;7.25;3.35;;;;;;;;;;5024334;28;20403;-94
2021/06/25 07:21:46;;;;;;;5.20;3.85;;;;;;;;;;5024086;28;20404;-94
2021/06/25 07:24:13;;;;;;;8.05;4.15;;;;;;;;;;5018372;28;20411;-95
2021/06/25 07:26:40;;;;;;;5.80;3.40;;;;;;;;;;5025037;28;20432;-94
2021/06/25 07:29:09;;;;;;;7.18;3.50;;;;;;;;;;5019515;28;20403;-94
2021/06/25 07:31:36;;;;;;;7.35;3.53;;;;;;;;;;5019512;28;20611;-94
2021/06/25 07:34:03;;;;;;;7.82;4.75;;;;;;;;;;5023241;28;20409;-94
2021/06/25 07:36:31;;;;;;;7.43;4.10;;;;;;;;;;5027374;28;20398;-95
2021/06/25 07:38:58;;;;;;;6.72;4.13;;;;;;;;;;5020145;28;20410;-94
2021/06/25 07:41:25;;;;;;;6.53;4.20;;;;;;;;;;5022502;28;20405;-95
2021/06/25 07:43:51;;;;;;;8.38;4.22;;;;;;;;;;5023067;28;20394;-95
2021/06/25 07:46:18;;;;;;;6.35;4.20;;;;;;;;;;5026609;28;20425;-95
2021/06/25 07:48:45;;;;;;;9.68;5.32;;;;;;;;;;5024626;28;20409;-94
2021/06/25 07:51:12;;;;;;;8.25;4.30;;;;;;;;;;5024840;28;20449;-95
2021/06/25 07:53:40;;;;;;;6.90;4.33;;;;;;;;;;5026541;28;20405;-94
2021/06/25 07:56:07;;;;;;;8.13;4.28;;;;;;;;;;5018791;28;20410;-94
2021/06/25 07:58:33;;;;;;;6.65;4.60;;;;;;;;;;5027156;28;20412;-94
2021/06/25 08:01:00;;;;;;;7.63;5.03;;;;;;;;;;5023289;28;20501;-94
2021/06/25 08:03:27;;;;;;;10.93;5.07;;;;;;;;;;5022552;28;20420;-96
2021/06/25 08:05:54;;;;;;;10.85;4.85;;;;;;;;;;5021046;28;20413;-94
2021/06/25 08:08:21;;;;;;;9.82;5.57;;;;;;;;;;5023382;28;20407;-94
2021/06/25 08:10:49;;;;;;;8.80;5.67;;;;;;;;;;5021849;28;20402;-94
2021/06/25 08:13:16;;;;;;;9.88;6.50;;;;;;;;;;5016402;28;20415;-95
2021/06/25 08:15:48;;;;;;;10.03;5.10;;;;;;;;;;5007882;28;20406;-94
2021/06/25 08:18:15;;;;;;;9.20;5.50;;;;;;;;;;5008178;28;20411;-96
2021/06/25 08:20:42;;;;;;;9.88;5.15;;;;;;;;;;5017524;28;20880;-94
2021/06/25 08:23:09;;;;;;;9.73;5.32;;;;;;;;;;5022039;28;20404;-94
2021/06/25 08:25:36;;;;;;;9.37;5.87;;;;;;;;;;5021954;28;20471;-94
2021/06/25 08:28:05;;;;;;;10.02;4.78;;;;;;;;;;5025670;28;20414;-94
2021/06/25 08:30:32;;;;;;;9.65;4.50;;;;;;;;;;5018178;28;20421;-94
2021/06/25 08:32:59;;;;;;;7.40;4.78;;;;;;;;;;5025496;28;20542;-95
2021/06/25 08:35:26;;;;;;;6.82;4.07;;;;;;;;;;5011127;28;20410;-95
2021/06/25 08:37:54;;;;;;;8.45;3.80;;;;;;;;;;5010808;28;20410;-94
2021/06/25 08:40:21;;;;;;;8.40;5.30;;;;;;;;;;5024340;28;20792;-94
2021/06/25 08:42:48;;;;;;;10.27;5.07;;;;;;;;;;5021578;28;20921;-95
2021/06/25 08:45:17;;;;;;;9.10;5.90;;;;;;;;;;5019734;28;20908;-94
2021/06/25 08:47:46;;;;;;;8.80;5.50;;;;;;;;;;5019041;28;20429;-94
2021/06/25 08:50:14;;;;;;;6.17;3.80;;;;;;;;;;5020557;28;20551;-94
2021/06/25 08:52:43;;;;;;;10.65;3.70;;;;;;;;;;5023692;28;20491;-93
2021/06/25 08:55:11;;;;;;;5.00;2.95;;;;;;;;;;5018486;28;20409;-95
2021/06/25 08:57:38;;;;;;;5.20;4.30;;;;;;;;;;5019730;28;20413;-94
2021/06/25 09:00:07;;;;;;;9.35;5.47;;;;;;;;;;5024215;28;20405;-94
2021/06/25 09:02:36;;;;;;;7.72;4.30;;;;;;;;;;5020818;28;20903;-95
2021/06/25 09:05:04;;;;;;;9.63;4.43;;;;;;;;;;5023205;28;20405;-94
2021/06/25 09:07:41;;;;;;;8.60;4.35;;;;;;;;;;5018009;28;20428;-94
2021/06/25 09:10:10;;;;;;;6.45;4.13;;;;;;;;;;5021612;28;20412;-94
2021/06/25 09:12:37;;;;;;;8.60;4.50;;;;;;;;;;5023130;28;20900;-94
2021/06/25 09:15:08;;;;;;;8.27;4.80;;;;;;;;;;5020427;28;20945;-94
2021/06/25 09:17:54;;;;;;;8.82;4.50;;;;;;;;;;5021789;28;20645;-94
2021/06/25 09:20:31;;;;;;;7.30;4.50;;;;;;;;;;5024235;28;20411;-95
2021/06/25 09:22:58;;;;;;;11.17;4.40;;;;;;;;;;5021370;28;20401;-94
2021/06/25 09:25:25;;;;;;;8.60;4.50;;;;;;;;;;5024007;28;20455;-94
2021/06/25 09:27:57;;;;;;;7.43;4.20;;;;;;;;;;5022807;28;20419;-95
2021/06/25 09:30:26;;;;;;;6.93;4.63;;;;;;;;;;5022729;28;20888;-93
2021/06/25 09:32:55;;;;;;;9.85;5.28;;;;;;;;;;5023709;28;20409;-95
2021/06/25 09:35:23;;;;;;;9.15;4.82;;;;;;;;;;5022413;28;20415;-95
2021/06/25 09:37:53;;;;;;;6.38;3.88;;;;;;;;;;5010705;28;20416;-96
2021/06/25 09:40:20;;;;;;;6.00;4.32;;;;;;;;;;5020663;28;20401;-95
2021/06/25 09:43:07;;;;;;;9.48;4.22;;;;;;;;;;5020133;28;20410;-94
2021/06/25 09:45:34;;;;;;;6.50;3.55;;;;;;;;;;5022476;28;20456;-95
2021/06/25 09:48:03;;;;;;;7.03;4.45;;;;;;;;;;5017119;28;20790;-95
2021/06/25 09:50:32;;;;;;;8.25;4.68;;;;;;;;;;5021248;28;20792;-96
2021/06/25 09:53:03;;;;;;;7.38;4.47;;;;;;;;;;5023218;28;20468;-95
2021/06/25 09:55:48;;;;;;;7.82;5.20;;;;;;;;;;5023768;28;20413;-95
2021/06/25 10:03:51;;;;;;;8.23;3.45;;;;;;;;;;5021160;28;20446;-96
2021/06/25 10:06:19;;;;;;;8.80;4.35;;;;;;;;;;5023538;28;20492;-96
2021/06/25 10:08:46;;;;;;;8.93;4.15;;;;;;;;;;5021635;28;20882;-95
2021/06/25 10:11:14;;;;;;;8.48;5.10;;;;;;;;;;5019975;28;20408;-95
2021/06/25 10:13:43;;;;;;;7.28;4.88;;;;;;;;;;5022152;28;20413;-96
2021/06/25 10:16:11;;;;;;;7.97;4.60;;;;;;;;;;5023172;28;20420;-95
2021/06/25 10:18:41;;;;;;;6.40;4.18;;;;;;;;;;5024573;28;20409;-95
2021/06/25 10:21:11;;;;;;;5.05;3.20;;;;;;;;;;5023325;28;20397;-95
2021/06/25 10:23:39;;;;;;;7.55;4.10;;;;;;;;;;5019961;28;20444;-95
2021/06/25 10:26:08;;;;;;;6.75;3.80;;;;;;;;;;5028864;28;20801;-95
2021/06/25 10:28:40;;;;;;;6.82;3.58;;;;;;;;;;5025973;28;20405;-95
2021/06/25 10:31:08;;;;;;;6.07;2.80;;;;;;;;;;5029234;28;20444;-95
2021/06/25 10:33:35;;;;;;;7.40;4.20;;;;;;;;;;5027240;28;20401;-95
2021/06/25 10:36:04;;;;;;;5.57;3.70;;;;;;;;;;5028513;28;20412;-95
2021/06/25 10:38:33;;;;;;;4.53;3.65;;;;;;;;;;5027875;28;20813;-95
2021/06/25 10:41:02;;;;;;;6.75;3.65;;;;;;;;;;5026359;28;20862;-95
2021/06/25 10:43:39;;;;;;;6.47;3.40;;;;;;;;;;5025790;28;20401;-96
2021/06/25 10:46:06;;;;;;;7.05;3.00;;;;;;;;;;5026733;28;20401;-95
2021/06/25 10:48:40;;;;;;;6.77;4.03;;;;;;;;;;5024677;28;20521;-96
2021/06/25 10:51:24;;;;;;;6.20;3.20;;;;;;;;;;5025784;28;20437;-95
2021/06/25 10:54:15;;;;;;;6.73;3.40;;;;;;;;;;5024411;28;20417;-95
2021/06/25 10:57:06;;;;;;;7.97;3.33;;;;;;;;;;5022409;28;20413;-96
2021/06/25 10:59:42;;;;;;;6.65;3.20;;;;;;;;;;5024043;28;20405;-96
2021/06/25 11:02:09;;;;;;;6.93;3.10;;;;;;;;;;5025141;28;20405;-96
2021/06/25 11:04:38;;;;;;;5.40;2.90;;;;;;;;;;5024316;28;20870;-96
2021/06/25 11:07:08;;;;;;;5.50;2.83;;;;;;;;;;5023657;28;20481;-96
2021/06/25 11:10:02;;;;;;;3.67;2.60;;;;;;;;;;5024188;28;20405;-96
2021/06/25 11:12:34;;;;;;;8.73;2.70;;;;;;;;;;5027988;28;20409;-95
2021/06/25 11:15:31;;;;;;;4.40;2.60;;;;;;;;;;5026842;28;20459;-95
2021/06/25 11:17:59;;;;;;;4.80;2.78;;;;;;;;;;5029128;28;20469;-96
2021/06/25 11:20:28;;;;;;;4.32;2.58;;;;;;;;;;5025974;28;20417;-96
2021/06/25 11:22:58;;;;;;;4.00;2.20;;;;;;;;;;5025918;28;20817;-96
2021/06/25 11:25:48;;;;;;;4.68;2.47;;;;;;;;;;5026130;28;20455;-96
2021/06/25 11:28:36;;;;;;;4.65;2.38;;;;;;;;;;5025386;28;20425;-96
2021/06/25 11:31:22;;;;;;;3.38;2.10;;;;;;;;;;5026953;28;20406;-95
2021/06/25 11:34:01;;;;;;;4.32;2.30;;;;;;;;;;5029718;28;20961;-96
2021/06/25 11:36:31;;;;;;;5.43;2.00;;;;;;;;;;5021700;28;20807;-95
2021/06/25 11:39:01;;;;;;;3.80;1.83;;;;;;;;;;5015603;28;20417;-96
2021/06/25 11:41:33;;;;;;;4.53;2.10;;;;;;;;;;5024935;28;20401;-95
2021/06/25 11:44:03;;;;;;;2.72;2.10;;;;;;;;;;5012532;28;20407;-96
2021/06/25 11:46:30;;;;;;;3.73;2.00;;;;;;;;;;5012280;28;20426;-95
2021/06/25 11:49:01;;;;;;;3.90;2.00;;;;;;;;;;5027250;28;20429;-95
2021/06/25 11:51:36;;;;;;;2.95;2.05;;;;;;;;;;5018368;28;20818;-95
2021/06/25 11:54:04;;;;;;;2.90;2.05;;;;;;;;;;5024097;28;20389;-95
2021/06/25 11:56:32;;;;;;;3.92;1.63;;;;;;;;;;5034001;28;20493;-95
2021/06/25 11:59:01;;;;;;;5.57;2.15;;;;;;;;;;5025372;28;21069;-96
2021/06/25 12:01:28;;;;;;;4.00;2.28;;;;;;;;;;5035955;28;20494;-95
2021/06/25 12:03:56;;;;;;;3.20;2.10;;;;;;;;;;5035908;28;21101;-95
2021/06/25 12:06:25;;;;;;;6.20;2.20;;;;;;;;;;5034532;28;21494;-96
2021/06/25 12:08:55;;;;;;;4.22;2.50;;;;;;;;;;5036499;28;20522;-95
2021/06/25 12:11:23;;;;;;;3.85;2.20;;;;;;;;;;5034914;28;20405;-96
2021/06/25 12:14:02;;;;;;;3.95;2.30;;;;;;;;;;5027258;28;20492;-95
2021/06/25 12:16:30;;;;;;;3.80;2.05;;;;;;;;;;5026190;28;20405;-95
2021/06/25 12:18:58;;;;;;;5.68;2.28;;;;;;;;;;5026111;28;20402;-96
2021/06/25 12:21:25;;;;;;;5.07;2.58;;;;;;;;;;5027164;28;20420;-96
2021/06/25 12:23:56;;;;;;;5.72;2.50;;;;;;;;;;5026881;28;20758;-96
2021/06/25 12:26:26;;;;;;;8.20;2.63;;;;;;;;;;5026024;28;20398;-96
2021/06/25 12:28:54;;;;;;;7.13;2.20;;;;;;;;;;5025722;28;20429;-96
2021/06/25 12:31:26;;;;;;;5.68;2.47;;;;;;;;;;5025866;28;20944;-96
2021/06/25 12:34:04;;;;;;;3.45;1.90;;;;;;;;;;5025663;28;20424;-96
2021/06/25 12:36:31;;;;;;;3.10;2.22;;;;;;;;;;5025357;28;20420;-95
2021/06/25 12:39:00;;;;;;;3.67;2.10;;;;;;;;;;5025427;28;20758;-96
2021/06/25 12:41:27;;;;;;;5.78;2.00;;;;;;;;;;5025494;28;20506;-96
2021/06/25 12:43:56;;;;;;;3.58;2.00;;;;;;;;;;5024348;28;20455;-96
2021/06/25 12:46:25;;;;;;;3.28;1.85;;;;;;;;;;5024728;28;20467;-96
2021/06/25 12:48:54;;;;;;;3.45;1.67;;;;;;;;;;5023758;28;20429;-96
2021/06/25 12:51:23;;;;;;;2.88;1.73;;;;;;;;;;5024677;28;20496;-95
2021/06/25 12:53:54;;;;;;;4.13;1.73;;;;;;;;;;5024642;28;20409;-96
2021/06/25 12:56:24;;;;;;;3.63;2.10;;;;;;;;;;5025361;28;20445;-95
2021/06/25 12:58:56;;;;;;;4.63;1.70;;;;;;;;;;5025176;28;20412;-96
2021/06/25 13:01:25;;;;;;;4.10;1.90;;;;;;;;;;5026429;28;20432;-96
2021/06/25 13:03:52;;;;;;;5.00;2.00;;;;;;;;;;5024448;28;20418;-96
2021/06/25 13:06:26;;;;;;;6.20;2.08;;;;;;;;;;5023445;28;20405;-96
2021/06/25 13:08:54;;;;;;;4.05;2.30;;;;;;;;;;5024679;28;20508;-95
2021/06/25 13:11:24;;;;;;;8.33;2.77;;;;;;;;;;5024530;28;20428;-96
2021/06/25 13:13:51;;;;;;;7.32;2.70;;;;;;;;;;5024241;28;20901;-96
2021/06/25 13:16:20;;;;;;;5.50;2.60;;;;;;;;;;5025992;28;20484;-96
2021/06/25 13:18:50;;;;;;;6.23;2.80;;;;;;;;;;5020279;28;20421;-96
2021/06/25 13:21:58;;;;;;;4.45;2.70;;;;;;;;;;5023343;28;20759;-96
2021/06/25 13:24:57;;;;;;;5.00;2.58;;;;;;;;;;5021746;28;20412;-96
2021/06/25 13:27:23;;;;;;;5.50;3.35;;;;;;;;;;5005558;28;21098;-96
2021/06/25 13:29:53;;;;;;;5.22;2.63;;;;;;;;;;5025378;28;20398;-96
2021/06/25 13:32:22;;;;;;;7.15;3.08;;;;;;;;;;5025202;28;20554;-96
2021/06/25 13:35:01;;;;;;;5.25;2.92;;;;;;;;;;5025870;28;20413;-96
2021/06/25 13:37:42;;;;;;;5.25;2.78;;;;;;;;;;5022504;28;20428;-96
2021/06/25 13:40:13;;;;;;;4.43;2.78;;;;;;;;;;5019464;28;20459;-95
2021/06/25 13:42:40;;;;;;;4.82;2.50;;;;;;;;;;5021709;28;21044;-96
2021/06/25 13:45:23;;;;;;;6.68;2.50;;;;;;;;;;5021479;28;20415;-96
2021/06/25 13:47:53;;;;;;;6.80;2.47;;;;;;;;;;5025717;28;20774;-96
2021/06/25 13:50:22;;;;;;;4.47;2.40;;;;;;;;;;5018429;28;20421;-96
2021/06/25 13:52:55;;;;;;;4.90;2.50;;;;;;;;;;5018334;28;20895;-96
2021/06/25 13:55:25;;;;;;;5.80;2.08;;;;;;;;;;5019941;28;20550;-96
2021/06/25 13:57:58;;;;;;;4.85;2.10;;;;;;;;;;5024827;28;20459;-95
2021/06/25 14:00:35;;;;;;;2.50;1.90;;;;;;;;;;5022771;28;20401;-96
2021/06/25 14:03:04;;;;;;;5.47;2.10;;;;;;;;;;5024511;28;20999;-96
2021/06/25 14:05:35;;;;;;;4.68;2.45;;;;;;;;;;5016310;28;20415;-96
2021/06/25 14:08:03;;;;;;;5.18;2.88;;;;;;;;;;5025015;28;20405;-96
2021/06/25 14:10:31;;;;;;;3.83;2.50;;;;;;;;;;5024272;28;20828;-95
2021/06/25 14:12:59;;;;;;;5.35;2.47;;;;;;;;;;5017282;28;20405;-90
2021/06/25 14:15:29;;;;;;;4.53;2.50;;;;;;;;;;5020827;28;20397;-89
2021/06/25 14:18:01;;;;;;;5.43;2.37;;;;;;;;;;5019953;28;20432;-90
2021/06/25 14:20:28;;;;;;;4.78;2.30;;;;;;;;;;5020134;28;20538;-89
2021/06/25 14:22:56;;;;;;;4.50;2.40;;;;;;;;;;5017441;28;20494;-96
2021/06/25 14:25:23;;;;;;;2.60;2.40;;;;;;;;;;5026093;28;20444;-96
2021/06/25 14:27:50;;;;;;;4.25;2.20;;;;;;;;;;5025173;28;20928;-96
2021/06/25 14:30:17;;;;;;;3.40;2.05;;;;;;;;;;5026797;28;20405;-96
2021/06/25 14:32:44;;;;;;;4.55;2.45;;;;;;;;;;5024360;28;20401;-96
2021/06/25 14:35:15;;;;;;;8.93;2.20;;;;;;;;;;5027106;28;20503;-96
2021/06/25 14:37:43;;;;;;;4.38;2.30;;;;;;;;;;5027197;28;20418;-96
2021/06/25 14:40:13;;;;;;;4.57;2.40;;;;;;;;;;5026283;28;20444;-90
2021/06/25 14:42:40;;;;;;;5.20;2.08;;;;;;;;;;5020564;28;20776;-89
2021/06/25 14:45:08;;;;;;;4.10;2.25;;;;;;;;;;5019253;28;20837;-91
2021/06/25 14:47:35;;;;;;;5.25;2.17;;;;;;;;;;5026527;28;20463;-96
2021/06/25 14:50:02;;;;;;;4.97;2.50;;;;;;;;;;5027066;28;20397;-96
2021/06/25 14:52:29;;;;;;;4.57;2.22;;;;;;;;;;5022101;28;20484;-91
2021/06/25 14:54:55;;;;;;;4.93;2.22;;;;;;;;;;5025822;28;20665;-96
2021/06/25 14:57:24;;;;;;;4.35;2.00;;;;;;;;;;5026128;28;20405;-96
2021/06/25 14:59:50;;;;;;;3.72;1.98;;;;;;;;;;5025321;28;20413;-96
2021/06/25 15:02:17;;;;;;;5.13;2.28;;;;;;;;;;5026157;28;20441;-96
2021/06/25 15:04:45;;;;;;;4.45;2.17;;;;;;;;;;5018277;28;20429;-96
2021/06/25 15:07:12;;;;;;;3.22;1.90;;;;;;;;;;5023217;28;20419;-96
2021/06/25 15:09:39;;;;;;;2.75;1.60;;;;;;;;;;5018989;28;20425;-95